sensor_id;sensor_type;location;lat;lon;timestamp;P1;durP1;ratioP1;P2;durP2;ratioP2
11642;SDS011;5877;50.930;6.918;2022-10-31T00:01:21;8.07;;;5.93;;
11642;SDS011;5877;50.930;6.918;2022-10-31T00:03:50;8.83;;;5.63;;
11642;SDS011;5877;50.930;6.918;2022-10-31T00:06:18;9.30;;;5.77;;
11642;SDS011;5877;50.930;6.918;2022-10-31T00:08:45;9.00;;;5.20;;
11642;SDS011;5877;50.930;6.918;2022-10-31T00:11:22;9.80;;;5.53;;
11642;SDS011;5877;50.930;6.918;2022-10-31T00:13:49;11.43;;;6.00;;
11642;SDS011;5877;50.930;6.918;2022-10-31T00:16:17;11.60;;;5.57;;
11642;SDS011;5877;50.930;6.918;2022-10-31T00:18:49;9.00;;;5.47;;
11642;SDS011;5877;50.930;6.918;2022-10-31T00:21:20;8.67;;;5.30;;
11642;SDS011;5877;50.930;6.918;2022-10-31T00:23:47;10.83;;;5.83;;
11642;SDS011;5877;50.930;6.918;2022-10-31T00:26:14;9.97;;;5.93;;
11642;SDS011;5877;50.930;6.918;2022-10-31T00:32:21;11.60;;;5.90;;
11642;SDS011;5877;50.930;6.918;2022-10-31T00:34:48;8.10;;;5.87;;
11642;SDS011;5877;50.930;6.918;2022-10-31T00:37:15;9.50;;;5.87;;
11642;SDS011;5877;50.930;6.918;2022-10-31T00:39:44;10.83;;;5.43;;
11642;SDS011;5877;50.930;6.918;2022-10-31T00:42:11;11.40;;;6.00;;
11642;SDS011;5877;50.930;6.918;2022-10-31T00:44:41;13.93;;;6.03;;
11642;SDS011;5877;50.930;6.918;2022-10-31T01:15:37;11.03;;;6.70;;
11642;SDS011;5877;50.930;6.918;2022-10-31T01:18:06;11.83;;;6.23;;
11642;SDS011;5877;50.930;6.918;2022-10-31T01:20:33;12.30;;;5.90;;
11642;SDS011;5877;50.930;6.918;2022-10-31T01:23:00;11.03;;;6.93;;
11642;SDS011;5877;50.930;6.918;2022-10-31T01:25:27;11.13;;;6.63;;
11642;SDS011;5877;50.930;6.918;2022-10-31T01:27:53;11.73;;;6.17;;
11642;SDS011;5877;50.930;6.918;2022-10-31T01:30:20;9.67;;;6.50;;
11642;SDS011;5877;50.930;6.918;2022-10-31T01:32:46;11.50;;;6.67;;
11642;SDS011;5877;50.930;6.918;2022-10-31T01:35:13;13.77;;;6.20;;
11642;SDS011;5877;50.930;6.918;2022-10-31T01:37:40;8.90;;;6.63;;
11642;SDS011;5877;50.930;6.918;2022-10-31T01:40:07;10.10;;;7.00;;
11642;SDS011;5877;50.930;6.918;2022-10-31T01:42:34;11.40;;;6.60;;
11642;SDS011;5877;50.930;6.918;2022-10-31T01:45:02;11.80;;;7.60;;
11642;SDS011;5877;50.930;6.918;2022-10-31T01:47:34;11.13;;;6.57;;
11642;SDS011;5877;50.930;6.918;2022-10-31T01:50:08;13.37;;;6.53;;
11642;SDS011;5877;50.930;6.918;2022-10-31T01:52:43;9.27;;;6.67;;
11642;SDS011;5877;50.930;6.918;2022-10-31T01:55:15;15.50;;;6.50;;
11642;SDS011;5877;50.930;6.918;2022-10-31T01:57:50;14.03;;;6.60;;
11642;SDS011;5877;50.930;6.918;2022-10-31T02:00:20;10.33;;;7.10;;
11642;SDS011;5877;50.930;6.918;2022-10-31T02:02:49;9.73;;;7.07;;
11642;SDS011;5877;50.930;6.918;2022-10-31T02:05:18;10.20;;;7.03;;
11642;SDS011;5877;50.930;6.918;2022-10-31T02:07:55;11.70;;;6.40;;
11642;SDS011;5877;50.930;6.918;2022-10-31T02:10:28;10.43;;;6.67;;
11642;SDS011;5877;50.930;6.918;2022-10-31T02:12:58;11.33;;;6.83;;
11642;SDS011;5877;50.930;6.918;2022-10-31T02:15:28;10.33;;;6.60;;
11642;SDS011;5877;50.930;6.918;2022-10-31T02:17:56;10.87;;;6.37;;
11642;SDS011;5877;50.930;6.918;2022-10-31T02:20:23;10.50;;;6.40;;
11642;SDS011;5877;50.930;6.918;2022-10-31T02:31:30;10.83;;;6.63;;
11642;SDS011;5877;50.930;6.918;2022-10-31T02:34:25;10.77;;;6.43;;
11642;SDS011;5877;50.930;6.918;2022-10-31T02:37:13;9.17;;;6.80;;
11642;SDS011;5877;50.930;6.918;2022-10-31T02:39:51;10.33;;;6.00;;
11642;SDS011;5877;50.930;6.918;2022-10-31T02:45:33;9.70;;;6.60;;
11642;SDS011;5877;50.930;6.918;2022-10-31T02:48:09;14.50;;;8.43;;
11642;SDS011;5877;50.930;6.918;2022-10-31T02:50:43;11.20;;;6.80;;
11642;SDS011;5877;50.930;6.918;2022-10-31T02:53:19;13.27;;;7.13;;
11642;SDS011;5877;50.930;6.918;2022-10-31T02:55:50;8.93;;;6.27;;
11642;SDS011;5877;50.930;6.918;2022-10-31T02:58:23;11.57;;;6.30;;
11642;SDS011;5877;50.930;6.918;2022-10-31T03:01:08;12.50;;;6.30;;
11642;SDS011;5877;50.930;6.918;2022-10-31T03:06:40;8.87;;;6.13;;
11642;SDS011;5877;50.930;6.918;2022-10-31T03:09:33;14.50;;;6.30;;
11642;SDS011;5877;50.930;6.918;2022-10-31T03:12:19;9.40;;;6.17;;
11642;SDS011;5877;50.930;6.918;2022-10-31T03:15:15;13.00;;;6.53;;
11642;SDS011;5877;50.930;6.918;2022-10-31T03:18:05;9.60;;;6.47;;
11642;SDS011;5877;50.930;6.918;2022-10-31T03:23:34;13.63;;;6.57;;
11642;SDS011;5877;50.930;6.918;2022-10-31T03:26:04;9.33;;;6.37;;
11642;SDS011;5877;50.930;6.918;2022-10-31T03:28:41;10.80;;;6.67;;
11642;SDS011;5877;50.930;6.918;2022-10-31T03:31:16;11.17;;;6.93;;
11642;SDS011;5877;50.930;6.918;2022-10-31T03:33:47;10.83;;;6.83;;
11642;SDS011;5877;50.930;6.918;2022-10-31T03:36:16;10.23;;;6.27;;
11642;SDS011;5877;50.930;6.918;2022-10-31T03:38:45;10.63;;;6.80;;
11642;SDS011;5877;50.930;6.918;2022-10-31T03:41:17;14.50;;;6.50;;
11642;SDS011;5877;50.930;6.918;2022-10-31T03:43:52;12.00;;;6.20;;
11642;SDS011;5877;50.930;6.918;2022-10-31T03:46:24;10.80;;;6.43;;
11642;SDS011;5877;50.930;6.918;2022-10-31T03:48:55;12.27;;;6.80;;
11642;SDS011;5877;50.930;6.918;2022-10-31T03:51:32;10.13;;;6.63;;
11642;SDS011;5877;50.930;6.918;2022-10-31T03:57:00;9.57;;;5.83;;
11642;SDS011;5877;50.930;6.918;2022-10-31T03:59:47;9.00;;;6.40;;
11642;SDS011;5877;50.930;6.918;2022-10-31T04:02:20;12.97;;;6.97;;
11642;SDS011;5877;50.930;6.918;2022-10-31T04:04:52;12.10;;;5.70;;
11642;SDS011;5877;50.930;6.918;2022-10-31T04:07:19;11.93;;;6.07;;
11642;SDS011;5877;50.930;6.918;2022-10-31T04:09:48;8.80;;;6.07;;
11642;SDS011;5877;50.930;6.918;2022-10-31T04:12:19;9.80;;;6.50;;
11642;SDS011;5877;50.930;6.918;2022-10-31T04:15:06;10.23;;;6.47;;
11642;SDS011;5877;50.930;6.918;2022-10-31T04:17:38;11.30;;;6.30;;
11642;SDS011;5877;50.930;6.918;2022-10-31T04:20:09;10.37;;;6.80;;
11642;SDS011;5877;50.930;6.918;2022-10-31T04:22:36;8.90;;;5.80;;
11642;SDS011;5877;50.930;6.918;2022-10-31T04:25:03;8.13;;;5.83;;
11642;SDS011;5877;50.930;6.918;2022-10-31T04:27:30;13.63;;;6.47;;
11642;SDS011;5877;50.930;6.918;2022-10-31T04:29:59;13.27;;;6.57;;
11642;SDS011;5877;50.930;6.918;2022-10-31T04:32:26;11.33;;;6.30;;
11642;SDS011;5877;50.930;6.918;2022-10-31T04:34:54;12.50;;;6.30;;
11642;SDS011;5877;50.930;6.918;2022-10-31T04:37:20;7.37;;;5.40;;
11642;SDS011;5877;50.930;6.918;2022-10-31T04:39:47;11.60;;;5.60;;
11642;SDS011;5877;50.930;6.918;2022-10-31T04:42:33;9.77;;;6.03;;
11642;SDS011;5877;50.930;6.918;2022-10-31T04:45:03;11.70;;;6.47;;
11642;SDS011;5877;50.930;6.918;2022-10-31T04:47:31;10.70;;;6.13;;
11642;SDS011;5877;50.930;6.918;2022-10-31T04:50:00;11.17;;;6.03;;
11642;SDS011;5877;50.930;6.918;2022-10-31T04:52:27;14.07;;;6.43;;
11642;SDS011;5877;50.930;6.918;2022-10-31T04:54:54;8.83;;;5.67;;
11642;SDS011;5877;50.930;6.918;2022-10-31T04:57:50;11.13;;;6.10;;
11642;SDS011;5877;50.930;6.918;2022-10-31T05:00:20;8.47;;;5.67;;
11642;SDS011;5877;50.930;6.918;2022-10-31T05:02:53;12.30;;;6.20;;
11642;SDS011;5877;50.930;6.918;2022-10-31T05:05:27;12.17;;;5.80;;
11642;SDS011;5877;50.930;6.918;2022-10-31T05:07:57;10.77;;;5.33;;
11642;SDS011;5877;50.930;6.918;2022-10-31T05:10:26;13.53;;;6.40;;
11642;SDS011;5877;50.930;6.918;2022-10-31T05:12:58;11.03;;;5.77;;
11642;SDS011;5877;50.930;6.918;2022-10-31T05:15:46;13.13;;;5.80;;
11642;SDS011;5877;50.930;6.918;2022-10-31T05:18:42;9.20;;;5.83;;
11642;SDS011;5877;50.930;6.918;2022-10-31T05:21:44;11.50;;;6.03;;
11642;SDS011;5877;50.930;6.918;2022-10-31T05:24:11;9.73;;;6.10;;
11642;SDS011;5877;50.930;6.918;2022-10-31T05:26:43;10.57;;;6.20;;
11642;SDS011;5877;50.930;6.918;2022-10-31T05:29:11;10.83;;;5.70;;
11642;SDS011;5877;50.930;6.918;2022-10-31T05:31:38;10.00;;;5.90;;
11642;SDS011;5877;50.930;6.918;2022-10-31T05:34:07;10.80;;;5.43;;
11642;SDS011;5877;50.930;6.918;2022-10-31T05:36:57;11.13;;;5.73;;
11642;SDS011;5877;50.930;6.918;2022-10-31T05:39:24;8.90;;;6.00;;
11642;SDS011;5877;50.930;6.918;2022-10-31T05:41:54;8.80;;;5.73;;
11642;SDS011;5877;50.930;6.918;2022-10-31T05:44:25;10.73;;;6.03;;
11642;SDS011;5877;50.930;6.918;2022-10-31T05:47:18;11.73;;;6.17;;
11642;SDS011;5877;50.930;6.918;2022-10-31T05:50:11;12.07;;;6.47;;
11642;SDS011;5877;50.930;6.918;2022-10-31T05:52:45;10.53;;;5.57;;
11642;SDS011;5877;50.930;6.918;2022-10-31T05:55:29;11.37;;;6.40;;
11642;SDS011;5877;50.930;6.918;2022-10-31T05:58:22;11.20;;;6.17;;
11642;SDS011;5877;50.930;6.918;2022-10-31T06:01:18;10.20;;;5.93;;
11642;SDS011;5877;50.930;6.918;2022-10-31T06:03:46;11.50;;;6.40;;
11642;SDS011;5877;50.930;6.918;2022-10-31T06:06:14;16.80;;;6.07;;
11642;SDS011;5877;50.930;6.918;2022-10-31T06:08:44;10.87;;;5.50;;
11642;SDS011;5877;50.930;6.918;2022-10-31T06:11:14;10.37;;;6.17;;
11642;SDS011;5877;50.930;6.918;2022-10-31T06:14:04;10.93;;;6.03;;
11642;SDS011;5877;50.930;6.918;2022-10-31T06:16:53;9.20;;;5.60;;
11642;SDS011;5877;50.930;6.918;2022-10-31T06:19:44;14.23;;;6.53;;
11642;SDS011;5877;50.930;6.918;2022-10-31T06:22:15;12.77;;;5.77;;
11642;SDS011;5877;50.930;6.918;2022-10-31T06:24:42;12.20;;;6.37;;
11642;SDS011;5877;50.930;6.918;2022-10-31T06:27:21;10.37;;;6.10;;
11642;SDS011;5877;50.930;6.918;2022-10-31T06:29:48;16.40;;;6.27;;
11642;SDS011;5877;50.930;6.918;2022-10-31T06:32:41;8.60;;;5.77;;
11642;SDS011;5877;50.930;6.918;2022-10-31T06:35:09;8.87;;;5.73;;
11642;SDS011;5877;50.930;6.918;2022-10-31T06:37:36;12.97;;;6.40;;
11642;SDS011;5877;50.930;6.918;2022-10-31T06:40:18;11.67;;;6.50;;
11642;SDS011;5877;50.930;6.918;2022-10-31T06:43:04;9.93;;;5.90;;
11642;SDS011;5877;50.930;6.918;2022-10-31T06:45:31;13.17;;;6.20;;
11642;SDS011;5877;50.930;6.918;2022-10-31T06:48:14;10.97;;;6.03;;
11642;SDS011;5877;50.930;6.918;2022-10-31T06:51:01;9.10;;;6.20;;
11642;SDS011;5877;50.930;6.918;2022-10-31T06:53:28;11.53;;;5.87;;
11642;SDS011;5877;50.930;6.918;2022-10-31T06:55:56;8.40;;;5.67;;
11642;SDS011;5877;50.930;6.918;2022-10-31T06:58:23;12.83;;;6.33;;
11642;SDS011;5877;50.930;6.918;2022-10-31T07:00:53;13.03;;;6.47;;
11642;SDS011;5877;50.930;6.918;2022-10-31T07:03:21;12.07;;;6.27;;
11642;SDS011;5877;50.930;6.918;2022-10-31T07:05:47;13.87;;;6.13;;
11642;SDS011;5877;50.930;6.918;2022-10-31T07:08:14;8.73;;;5.83;;
11642;SDS011;5877;50.930;6.918;2022-10-31T07:10:41;11.63;;;5.83;;
11642;SDS011;5877;50.930;6.918;2022-10-31T07:13:10;12.57;;;6.20;;
11642;SDS011;5877;50.930;6.918;2022-10-31T07:15:39;10.10;;;6.13;;
11642;SDS011;5877;50.930;6.918;2022-10-31T07:18:08;10.20;;;5.90;;
11642;SDS011;5877;50.930;6.918;2022-10-31T07:20:36;14.97;;;6.00;;
11642;SDS011;5877;50.930;6.918;2022-10-31T07:23:03;13.87;;;6.40;;
11642;SDS011;5877;50.930;6.918;2022-10-31T07:25:31;12.27;;;5.70;;
11642;SDS011;5877;50.930;6.918;2022-10-31T07:28:17;8.67;;;5.93;;
11642;SDS011;5877;50.930;6.918;2022-10-31T07:30:53;12.27;;;6.30;;
11642;SDS011;5877;50.930;6.918;2022-10-31T07:33:22;11.30;;;6.37;;
11642;SDS011;5877;50.930;6.918;2022-10-31T07:36:14;10.83;;;6.23;;
11642;SDS011;5877;50.930;6.918;2022-10-31T07:38:43;11.40;;;5.90;;
11642;SDS011;5877;50.930;6.918;2022-10-31T07:41:10;11.03;;;6.40;;
11642;SDS011;5877;50.930;6.918;2022-10-31T07:43:41;8.27;;;5.67;;
11642;SDS011;5877;50.930;6.918;2022-10-31T07:46:27;10.77;;;6.20;;
11642;SDS011;5877;50.930;6.918;2022-10-31T07:49:14;13.93;;;6.07;;
11642;SDS011;5877;50.930;6.918;2022-10-31T07:51:59;12.83;;;6.27;;
11642;SDS011;5877;50.930;6.918;2022-10-31T07:54:44;10.73;;;6.20;;
11642;SDS011;5877;50.930;6.918;2022-10-31T07:57:11;11.60;;;6.07;;
11642;SDS011;5877;50.930;6.918;2022-10-31T07:59:38;11.50;;;5.73;;
11642;SDS011;5877;50.930;6.918;2022-10-31T08:02:07;14.67;;;6.40;;
11642;SDS011;5877;50.930;6.918;2022-10-31T08:04:46;8.30;;;6.13;;
11642;SDS011;5877;50.930;6.918;2022-10-31T08:07:35;10.23;;;6.27;;
11642;SDS011;5877;50.930;6.918;2022-10-31T08:10:04;8.67;;;5.87;;
11642;SDS011;5877;50.930;6.918;2022-10-31T08:12:33;11.27;;;5.67;;
11642;SDS011;5877;50.930;6.918;2022-10-31T08:15:01;7.20;;;5.57;;
11642;SDS011;5877;50.930;6.918;2022-10-31T08:17:28;12.40;;;5.90;;
11642;SDS011;5877;50.930;6.918;2022-10-31T08:19:58;10.47;;;5.90;;
11642;SDS011;5877;50.930;6.918;2022-10-31T08:22:30;8.77;;;5.83;;
11642;SDS011;5877;50.930;6.918;2022-10-31T08:24:59;8.00;;;6.20;;
11642;SDS011;5877;50.930;6.918;2022-10-31T08:27:26;11.67;;;6.00;;
11642;SDS011;5877;50.930;6.918;2022-10-31T08:29:55;12.77;;;6.30;;
11642;SDS011;5877;50.930;6.918;2022-10-31T08:32:25;12.87;;;6.00;;
11642;SDS011;5877;50.930;6.918;2022-10-31T08:35:31;8.87;;;5.50;;
11642;SDS011;5877;50.930;6.918;2022-10-31T08:38:25;12.40;;;6.80;;
11642;SDS011;5877;50.930;6.918;2022-10-31T08:40:54;11.00;;;6.37;;
11642;SDS011;5877;50.930;6.918;2022-10-31T08:43:21;11.90;;;6.67;;
11642;SDS011;5877;50.930;6.918;2022-10-31T08:45:49;9.10;;;6.23;;
11642;SDS011;5877;50.930;6.918;2022-10-31T08:48:22;10.23;;;6.10;;
11642;SDS011;5877;50.930;6.918;2022-10-31T08:50:50;11.20;;;6.03;;
11642;SDS011;5877;50.930;6.918;2022-10-31T08:53:18;11.70;;;5.97;;
11642;SDS011;5877;50.930;6.918;2022-10-31T08:55:55;10.17;;;5.93;;
11642;SDS011;5877;50.930;6.918;2022-10-31T08:58:24;9.57;;;6.00;;
11642;SDS011;5877;50.930;6.918;2022-10-31T09:00:58;14.37;;;6.07;;
11642;SDS011;5877;50.930;6.918;2022-10-31T09:03:26;11.23;;;6.17;;
11642;SDS011;5877;50.930;6.918;2022-10-31T09:05:59;11.37;;;6.40;;
11642;SDS011;5877;50.930;6.918;2022-10-31T09:08:29;11.10;;;6.17;;
11642;SDS011;5877;50.930;6.918;2022-10-31T09:10:56;11.13;;;6.30;;
11642;SDS011;5877;50.930;6.918;2022-10-31T09:13:42;9.50;;;6.10;;
11642;SDS011;5877;50.930;6.918;2022-10-31T09:16:38;12.97;;;6.30;;
11642;SDS011;5877;50.930;6.918;2022-10-31T09:19:11;17.80;;;6.73;;
11642;SDS011;5877;50.930;6.918;2022-10-31T09:21:37;10.27;;;6.13;;
11642;SDS011;5877;50.930;6.918;2022-10-31T09:24:04;10.47;;;6.57;;
11642;SDS011;5877;50.930;6.918;2022-10-31T09:26:32;15.13;;;6.70;;
11642;SDS011;5877;50.930;6.918;2022-10-31T09:29:06;14.90;;;6.43;;
11642;SDS011;5877;50.930;6.918;2022-10-31T09:31:36;16.33;;;6.63;;
11642;SDS011;5877;50.930;6.918;2022-10-31T09:34:29;13.43;;;5.93;;
11642;SDS011;5877;50.930;6.918;2022-10-31T09:37:07;9.50;;;6.03;;
11642;SDS011;5877;50.930;6.918;2022-10-31T09:39:34;9.77;;;6.30;;
11642;SDS011;5877;50.930;6.918;2022-10-31T09:45:22;10.17;;;6.33;;
11642;SDS011;5877;50.930;6.918;2022-10-31T09:48:24;12.30;;;6.33;;
11642;SDS011;5877;50.930;6.918;2022-10-31T09:51:11;11.30;;;7.00;;
11642;SDS011;5877;50.930;6.918;2022-10-31T09:57:04;12.60;;;6.57;;
11642;SDS011;5877;50.930;6.918;2022-10-31T09:59:39;10.57;;;6.53;;
11642;SDS011;5877;50.930;6.918;2022-10-31T10:05:30;12.63;;;6.87;;
11642;SDS011;5877;50.930;6.918;2022-10-31T10:08:18;10.77;;;6.27;;
11642;SDS011;5877;50.930;6.918;2022-10-31T10:14:15;13.13;;;6.43;;
11642;SDS011;5877;50.930;6.918;2022-10-31T10:17:06;9.43;;;6.20;;
11642;SDS011;5877;50.930;6.918;2022-10-31T10:20:00;13.40;;;6.50;;
11642;SDS011;5877;50.930;6.918;2022-10-31T10:22:54;11.97;;;6.23;;
11642;SDS011;5877;50.930;6.918;2022-10-31T10:30:37;13.57;;;6.27;;
11642;SDS011;5877;50.930;6.918;2022-10-31T10:33:29;14.20;;;6.30;;
11642;SDS011;5877;50.930;6.918;2022-10-31T10:36:04;9.60;;;5.87;;
11642;SDS011;5877;50.930;6.918;2022-10-31T10:41:36;10.63;;;5.87;;
11642;SDS011;5877;50.930;6.918;2022-10-31T10:44:05;14.33;;;6.43;;
11642;SDS011;5877;50.930;6.918;2022-10-31T10:46:51;10.80;;;6.87;;
11642;SDS011;5877;50.930;6.918;2022-10-31T10:49:45;11.50;;;6.33;;
11642;SDS011;5877;50.930;6.918;2022-10-31T10:55:32;8.37;;;5.90;;
11642;SDS011;5877;50.930;6.918;2022-10-31T10:58:24;10.90;;;6.13;;
11642;SDS011;5877;50.930;6.918;2022-10-31T11:00:52;10.17;;;5.57;;
11642;SDS011;5877;50.930;6.918;2022-10-31T11:03:21;11.77;;;5.17;;
11642;SDS011;5877;50.930;6.918;2022-10-31T11:05:49;8.43;;;5.60;;
11642;SDS011;5877;50.930;6.918;2022-10-31T11:10:56;9.87;;;4.83;;
11642;SDS011;5877;50.930;6.918;2022-10-31T11:13:44;10.97;;;5.27;;
11642;SDS011;5877;50.930;6.918;2022-10-31T11:16:14;10.63;;;5.17;;
11642;SDS011;5877;50.930;6.918;2022-10-31T11:18:53;11.23;;;5.33;;
11642;SDS011;5877;50.930;6.918;2022-10-31T11:21:31;8.30;;;5.23;;
11642;SDS011;5877;50.930;6.918;2022-10-31T11:24:08;9.30;;;5.30;;
11642;SDS011;5877;50.930;6.918;2022-10-31T11:26:41;9.03;;;5.37;;
11642;SDS011;5877;50.930;6.918;2022-10-31T11:32:00;10.80;;;5.33;;
11642;SDS011;5877;50.930;6.918;2022-10-31T11:34:29;10.40;;;5.00;;
11642;SDS011;5877;50.930;6.918;2022-10-31T11:37:01;11.17;;;5.20;;
11642;SDS011;5877;50.930;6.918;2022-10-31T11:39:50;12.30;;;4.87;;
11642;SDS011;5877;50.930;6.918;2022-10-31T11:42:20;12.13;;;5.10;;
11642;SDS011;5877;50.930;6.918;2022-10-31T11:44:51;10.30;;;5.10;;
11642;SDS011;5877;50.930;6.918;2022-10-31T11:47:27;10.77;;;5.37;;
11642;SDS011;5877;50.930;6.918;2022-10-31T11:49:56;10.97;;;4.83;;
11642;SDS011;5877;50.930;6.918;2022-10-31T11:52:28;8.93;;;4.77;;
11642;SDS011;5877;50.930;6.918;2022-10-31T11:54:58;8.93;;;4.73;;
11642;SDS011;5877;50.930;6.918;2022-10-31T11:57:41;11.77;;;4.73;;
11642;SDS011;5877;50.930;6.918;2022-10-31T12:00:28;10.67;;;4.77;;
11642;SDS011;5877;50.930;6.918;2022-10-31T12:06:06;8.27;;;4.30;;
11642;SDS011;5877;50.930;6.918;2022-10-31T12:08:38;9.87;;;4.43;;
11642;SDS011;5877;50.930;6.918;2022-10-31T12:13:57;12.60;;;5.27;;
11642;SDS011;5877;50.930;6.918;2022-10-31T12:36:38;9.43;;;4.73;;
11642;SDS011;5877;50.930;6.918;2022-10-31T12:39:34;13.23;;;4.60;;
11642;SDS011;5877;50.930;6.918;2022-10-31T12:47:30;12.40;;;4.27;;
11642;SDS011;5877;50.930;6.918;2022-10-31T12:52:45;8.33;;;4.50;;
11642;SDS011;5877;50.930;6.918;2022-10-31T12:58:26;10.03;;;5.03;;
11642;SDS011;5877;50.930;6.918;2022-10-31T13:01:11;12.97;;;4.20;;
11642;SDS011;5877;50.930;6.918;2022-10-31T13:03:44;10.07;;;4.40;;
11642;SDS011;5877;50.930;6.918;2022-10-31T13:06:20;10.90;;;4.33;;
11642;SDS011;5877;50.930;6.918;2022-10-31T13:08:52;13.17;;;4.70;;
11642;SDS011;5877;50.930;6.918;2022-10-31T13:11:30;7.57;;;4.20;;
11642;SDS011;5877;50.930;6.918;2022-10-31T13:14:05;12.30;;;4.50;;
11642;SDS011;5877;50.930;6.918;2022-10-31T13:16:41;6.60;;;4.17;;
11642;SDS011;5877;50.930;6.918;2022-10-31T13:24:57;8.63;;;4.23;;
11642;SDS011;5877;50.930;6.918;2022-10-31T13:27:42;8.47;;;4.50;;
11642;SDS011;5877;50.930;6.918;2022-10-31T13:30:13;10.53;;;4.37;;
11642;SDS011;5877;50.930;6.918;2022-10-31T13:38:22;10.83;;;4.43;;
11642;SDS011;5877;50.930;6.918;2022-10-31T13:43:36;9.23;;;4.30;;
11642;SDS011;5877;50.930;6.918;2022-10-31T13:48:57;7.57;;;3.90;;
11642;SDS011;5877;50.930;6.918;2022-10-31T13:51:28;13.73;;;4.33;;
11642;SDS011;5877;50.930;6.918;2022-10-31T13:53:58;9.43;;;4.17;;
11642;SDS011;5877;50.930;6.918;2022-10-31T13:56:28;6.17;;;3.70;;
11642;SDS011;5877;50.930;6.918;2022-10-31T14:02:10;8.83;;;4.27;;
11642;SDS011;5877;50.930;6.918;2022-10-31T14:04:43;7.43;;;4.07;;
11642;SDS011;5877;50.930;6.918;2022-10-31T14:07:14;8.87;;;4.23;;
11642;SDS011;5877;50.930;6.918;2022-10-31T14:09:58;12.73;;;4.73;;
11642;SDS011;5877;50.930;6.918;2022-10-31T14:15:15;11.03;;;4.40;;
11642;SDS011;5877;50.930;6.918;2022-10-31T14:17:47;10.13;;;4.40;;
11642;SDS011;5877;50.930;6.918;2022-10-31T14:20:37;8.97;;;4.40;;
11642;SDS011;5877;50.930;6.918;2022-10-31T14:23:50;12.33;;;4.53;;
11642;SDS011;5877;50.930;6.918;2022-10-31T14:28:45;11.03;;;4.47;;
11642;SDS011;5877;50.930;6.918;2022-10-31T14:39:46;7.77;;;4.30;;
11642;SDS011;5877;50.930;6.918;2022-10-31T14:50:53;8.47;;;4.00;;
11642;SDS011;5877;50.930;6.918;2022-10-31T14:53:30;11.90;;;4.57;;
11642;SDS011;5877;50.930;6.918;2022-10-31T14:56:00;14.53;;;4.30;;
11642;SDS011;5877;50.930;6.918;2022-10-31T15:01:24;15.47;;;4.47;;
11642;SDS011;5877;50.930;6.918;2022-10-31T15:04:02;12.90;;;4.17;;
11642;SDS011;5877;50.930;6.918;2022-10-31T15:06:51;7.67;;;3.80;;
11642;SDS011;5877;50.930;6.918;2022-10-31T15:09:26;9.27;;;4.00;;
11642;SDS011;5877;50.930;6.918;2022-10-31T15:11:54;11.53;;;4.47;;
11642;SDS011;5877;50.930;6.918;2022-10-31T15:14:30;9.47;;;3.90;;
11642;SDS011;5877;50.930;6.918;2022-10-31T15:16:57;8.70;;;3.77;;
11642;SDS011;5877;50.930;6.918;2022-10-31T15:19:28;12.33;;;4.23;;
11642;SDS011;5877;50.930;6.918;2022-10-31T15:21:56;10.07;;;4.10;;
11642;SDS011;5877;50.930;6.918;2022-10-31T15:24:24;10.97;;;4.27;;
11642;SDS011;5877;50.930;6.918;2022-10-31T15:26:58;7.83;;;3.40;;
11642;SDS011;5877;50.930;6.918;2022-10-31T15:29:30;11.37;;;3.70;;
11642;SDS011;5877;50.930;6.918;2022-10-31T15:32:01;10.00;;;3.80;;
11642;SDS011;5877;50.930;6.918;2022-10-31T15:34:44;12.70;;;4.23;;
11642;SDS011;5877;50.930;6.918;2022-10-31T15:37:12;10.67;;;4.07;;
11642;SDS011;5877;50.930;6.918;2022-10-31T15:39:41;7.73;;;3.40;;
11642;SDS011;5877;50.930;6.918;2022-10-31T15:42:17;11.20;;;4.50;;
11642;SDS011;5877;50.930;6.918;2022-10-31T15:44:48;10.23;;;4.20;;
11642;SDS011;5877;50.930;6.918;2022-10-31T15:47:20;10.20;;;4.20;;
11642;SDS011;5877;50.930;6.918;2022-10-31T15:55:20;8.00;;;3.60;;
11642;SDS011;5877;50.930;6.918;2022-10-31T15:57:51;9.33;;;4.33;;
11642;SDS011;5877;50.930;6.918;2022-10-31T16:00:32;9.83;;;3.77;;
11642;SDS011;5877;50.930;6.918;2022-10-31T16:03:24;9.67;;;4.13;;
11642;SDS011;5877;50.930;6.918;2022-10-31T16:05:54;9.47;;;3.83;;
11642;SDS011;5877;50.930;6.918;2022-10-31T16:08:23;11.70;;;3.93;;
11642;SDS011;5877;50.930;6.918;2022-10-31T16:10:52;12.47;;;4.10;;
11642;SDS011;5877;50.930;6.918;2022-10-31T16:13:21;13.67;;;4.03;;
11642;SDS011;5877;50.930;6.918;2022-10-31T16:16:10;9.93;;;3.77;;
11642;SDS011;5877;50.930;6.918;2022-10-31T16:19:00;9.57;;;3.87;;
11642;SDS011;5877;50.930;6.918;2022-10-31T16:21:30;8.20;;;3.67;;
11642;SDS011;5877;50.930;6.918;2022-10-31T16:24:02;14.27;;;4.27;;
11642;SDS011;5877;50.930;6.918;2022-10-31T16:26:37;12.30;;;4.60;;
11642;SDS011;5877;50.930;6.918;2022-10-31T16:29:04;8.60;;;4.03;;
11642;SDS011;5877;50.930;6.918;2022-10-31T16:31:38;9.47;;;4.30;;
11642;SDS011;5877;50.930;6.918;2022-10-31T16:34:14;11.07;;;4.13;;
11642;SDS011;5877;50.930;6.918;2022-10-31T16:36:51;10.10;;;4.10;;
11642;SDS011;5877;50.930;6.918;2022-10-31T16:39:18;10.03;;;4.70;;
11642;SDS011;5877;50.930;6.918;2022-10-31T16:41:46;9.77;;;4.23;;
11642;SDS011;5877;50.930;6.918;2022-10-31T16:44:17;7.73;;;3.93;;
11642;SDS011;5877;50.930;6.918;2022-10-31T16:47:11;11.07;;;4.30;;
11642;SDS011;5877;50.930;6.918;2022-10-31T16:49:40;19.53;;;4.77;;
11642;SDS011;5877;50.930;6.918;2022-10-31T16:52:12;8.80;;;4.30;;
11642;SDS011;5877;50.930;6.918;2022-10-31T16:54:39;6.50;;;4.23;;
11642;SDS011;5877;50.930;6.918;2022-10-31T16:57:05;9.83;;;4.43;;
11642;SDS011;5877;50.930;6.918;2022-10-31T16:59:32;6.97;;;4.27;;
11642;SDS011;5877;50.930;6.918;2022-10-31T17:02:01;7.33;;;4.50;;
11642;SDS011;5877;50.930;6.918;2022-10-31T17:04:30;9.03;;;4.10;;
11642;SDS011;5877;50.930;6.918;2022-10-31T17:07:04;7.63;;;3.93;;
11642;SDS011;5877;50.930;6.918;2022-10-31T17:09:31;8.77;;;4.27;;
11642;SDS011;5877;50.930;6.918;2022-10-31T17:11:57;9.83;;;4.40;;
11642;SDS011;5877;50.930;6.918;2022-10-31T17:14:25;10.87;;;4.30;;
11642;SDS011;5877;50.930;6.918;2022-10-31T17:16:52;7.10;;;4.80;;
11642;SDS011;5877;50.930;6.918;2022-10-31T17:19:18;9.07;;;4.17;;
11642;SDS011;5877;50.930;6.918;2022-10-31T17:21:46;8.43;;;4.20;;
11642;SDS011;5877;50.930;6.918;2022-10-31T17:24:13;11.10;;;4.80;;
11642;SDS011;5877;50.930;6.918;2022-10-31T17:26:40;9.97;;;4.17;;
11642;SDS011;5877;50.930;6.918;2022-10-31T17:29:09;8.93;;;4.70;;
11642;SDS011;5877;50.930;6.918;2022-10-31T17:31:35;7.03;;;4.43;;
11642;SDS011;5877;50.930;6.918;2022-10-31T17:34:04;11.90;;;4.40;;
11642;SDS011;5877;50.930;6.918;2022-10-31T17:36:32;10.93;;;4.57;;
11642;SDS011;5877;50.930;6.918;2022-10-31T17:38:59;9.93;;;4.53;;
11642;SDS011;5877;50.930;6.918;2022-10-31T17:41:26;8.80;;;4.33;;
11642;SDS011;5877;50.930;6.918;2022-10-31T17:43:54;10.17;;;4.70;;
11642;SDS011;5877;50.930;6.918;2022-10-31T17:46:21;8.40;;;4.63;;
11642;SDS011;5877;50.930;6.918;2022-10-31T17:48:47;9.90;;;4.87;;
11642;SDS011;5877;50.930;6.918;2022-10-31T17:51:15;9.97;;;4.90;;
11642;SDS011;5877;50.930;6.918;2022-10-31T17:53:42;10.97;;;4.63;;
11642;SDS011;5877;50.930;6.918;2022-10-31T17:56:09;10.93;;;4.80;;
11642;SDS011;5877;50.930;6.918;2022-10-31T17:58:36;9.93;;;4.87;;
11642;SDS011;5877;50.930;6.918;2022-10-31T18:01:10;14.10;;;4.60;;
11642;SDS011;5877;50.930;6.918;2022-10-31T18:03:39;10.10;;;4.47;;
11642;SDS011;5877;50.930;6.918;2022-10-31T18:06:06;11.77;;;5.07;;
11642;SDS011;5877;50.930;6.918;2022-10-31T18:08:35;10.93;;;4.90;;
11642;SDS011;5877;50.930;6.918;2022-10-31T18:11:06;14.10;;;4.97;;
11642;SDS011;5877;50.930;6.918;2022-10-31T18:13:35;11.13;;;4.90;;
11642;SDS011;5877;50.930;6.918;2022-10-31T18:16:06;12.10;;;5.20;;
11642;SDS011;5877;50.930;6.918;2022-10-31T18:18:38;7.87;;;5.07;;
11642;SDS011;5877;50.930;6.918;2022-10-31T18:21:05;9.13;;;4.40;;
11642;SDS011;5877;50.930;6.918;2022-10-31T18:23:33;9.93;;;4.63;;